Time;durP1;ratioP1;P1;durP2;ratioP2;P2;SDS_P1;SDS_P2;PMS_P1;PMS_P2;Temp;Humidity;BMP_temperature;BMP_pressure;BME280_temperature;BME280_humidity;BME280_pressure;Samples;Min_cycle;Max_cycle;Signal;HPM_P1;HPM_P2
2023/01/08 00:00:07;;;;;;;2.07;1.97;;;8.60;99.90;;;;;;5025075;28;20211;-53
2023/01/08 00:02:39;;;;;;;3.63;2.10;;;8.60;99.90;;;;;;5020847;28;20219;-53
2023/01/08 00:05:07;;;;;;;1.80;1.70;;;8.60;99.90;;;;;;5017932;28;20212;-52
2023/01/08 00:07:34;;;;;;;2.50;1.90;;;8.60;99.90;;;;;;5029335;28;20724;-45
2023/01/08 00:10:01;;;;;;;2.17;1.93;;;8.60;99.90;;;;;;5025928;28;20204;-54
2023/01/08 00:12:27;;;;;;;3.57;1.90;;;8.70;99.90;;;;;;5024066;28;20258;-46
2023/01/08 00:14:54;;;;;;;2.77;2.00;;;8.70;99.90;;;;;;5024723;28;20270;-51
2023/01/08 00:17:21;;;;;;;1.83;1.60;;;8.70;99.90;;;;;;5023671;28;20584;-47
2023/01/08 00:19:48;;;;;;;2.80;1.97;;;8.70;99.90;;;;;;5012533;28;20215;-51
2023/01/08 00:22:16;;;;;;;1.90;1.80;;;8.70;99.90;;;;;;5031068;28;20559;-48
2023/01/08 00:24:43;;;;;;;1.70;1.60;;;8.70;99.90;;;;;;5027669;28;20192;-50
2023/01/08 00:27:09;;;;;;;1.80;1.70;;;8.70;99.90;;;;;;5030952;28;20223;-48
2023/01/08 00:29:36;;;;;;;2.23;2.10;;;8.70;99.90;;;;;;5033971;28;20195;-53
2023/01/08 00:32:03;;;;;;;2.10;2.00;;;8.80;99.90;;;;;;5025117;28;20215;-52
2023/01/08 00:34:31;;;;;;;2.17;1.97;;;8.80;99.90;;;;;;5029268;28;20199;-48
2023/01/08 00:36:58;;;;;;;2.17;1.97;;;8.80;99.90;;;;;;5026890;28;20224;-55
2023/01/08 00:39:26;;;;;;;2.10;1.90;;;8.80;99.90;;;;;;5028204;28;20214;-47
2023/01/08 00:41:53;;;;;;;1.93;1.70;;;8.80;99.90;;;;;;5040327;28;20314;-51
2023/01/08 00:44:20;;;;;;;1.97;1.73;;;8.80;99.90;;;;;;5032170;28;20203;-45
2023/01/08 00:46:47;;;;;;;1.53;1.43;;;8.80;99.90;;;;;;5038311;28;20575;-55
2023/01/08 00:49:13;;;;;;;2.00;1.80;;;8.80;99.90;;;;;;5029828;28;20200;-43
2023/01/08 00:51:40;;;;;;;1.97;1.87;;;8.80;99.90;;;;;;5016050;28;20208;-55
2023/01/08 00:54:07;;;;;;;2.23;2.03;;;8.90;99.90;;;;;;5032837;28;20196;-44
2023/01/08 00:56:35;;;;;;;2.20;1.77;;;8.90;99.90;;;;;;5039097;28;20838;-53
2023/01/08 00:59:02;;;;;;;2.37;2.20;;;8.90;99.90;;;;;;5032122;28;20601;-51
2023/01/08 01:01:29;;;;;;;3.30;2.00;;;8.90;99.90;;;;;;5035522;28;20215;-55
2023/01/08 01:03:55;;;;;;;2.37;1.80;;;9.00;99.90;;;;;;5035814;28;20195;-48
2023/01/08 01:06:22;;;;;;;2.87;2.13;;;8.90;99.90;;;;;;5028609;28;20191;-44
2023/01/08 01:08:49;;;;;;;2.23;2.00;;;9.00;99.90;;;;;;5033382;28;20214;-55
2023/01/08 01:11:19;;;;;;;3.47;1.90;;;9.00;99.90;;;;;;5041626;28;20231;-50
2023/01/08 01:13:47;;;;;;;2.23;2.03;;;9.00;99.90;;;;;;5023319;28;20326;-52
2023/01/08 01:16:14;;;;;;;2.10;1.90;;;9.10;99.90;;;;;;5023928;28;20220;-44
2023/01/08 01:18:41;;;;;;;2.30;2.10;;;9.00;99.90;;;;;;5032325;28;20249;-54
2023/01/08 01:21:12;;;;;;;1.93;1.83;;;9.10;99.90;;;;;;5029340;28;20200;-45
2023/01/08 01:23:40;;;;;;;2.10;1.90;;;9.10;99.90;;;;;;5014495;28;20306;-55
2023/01/08 01:26:15;;;;;;;2.10;1.90;;;9.00;99.90;;;;;;5027959;28;20211;-49
2023/01/08 01:28:42;;;;;;;1.90;1.80;;;9.10;99.90;;;;;;5023644;28;20286;-55
2023/01/08 01:31:11;;;;;;;2.23;2.03;;;9.10;99.90;;;;;;5028232;28;20243;-49
2023/01/08 01:33:38;;;;;;;1.60;1.50;;;9.10;99.90;;;;;;5023093;28;20200;-51
2023/01/08 01:36:06;;;;;;;2.20;1.97;;;9.10;99.90;;;;;;5021592;28;20220;-51
2023/01/08 01:38:33;;;;;;;2.63;2.03;;;9.10;99.90;;;;;;5013878;28;20577;-53
2023/01/08 01:41:00;;;;;;;1.80;1.70;;;9.10;99.90;;;;;;5029933;28;20202;-45
2023/01/08 01:43:38;;;;;;;5.17;1.93;;;9.10;99.90;;;;;;5029733;28;20204;-49
2023/01/08 01:46:15;;;;;;;2.30;1.80;;;9.10;99.90;;;;;;5030104;28;20207;-50
2023/01/08 01:48:43;;;;;;;1.87;1.77;;;9.10;99.90;;;;;;5025102;28;20200;-54
2023/01/08 01:51:10;;;;;;;1.90;1.80;;;9.10;99.90;;;;;;5026236;28;20277;-54
2023/01/08 01:53:37;;;;;;;2.47;2.00;;;9.10;99.90;;;;;;5023036;28;20697;-53
2023/01/08 01:56:05;;;;;;;2.20;2.00;;;9.10;99.90;;;;;;5032375;28;20211;-50
2023/01/08 01:58:32;;;;;;;2.73;1.70;;;9.20;99.90;;;;;;5025360;28;20203;-48
2023/01/08 02:01:02;;;;;;;2.53;2.00;;;9.20;99.90;;;;;;5026150;28;20261;-45
2023/01/08 02:03:33;;;;;;;2.43;2.23;;;9.30;99.90;;;;;;5045079;28;20714;-50
2023/01/08 02:06:12;;;;;;;2.37;2.17;;;9.30;99.90;;;;;;5038548;28;20249;-44
2023/01/08 02:08:47;;;;;;;2.20;1.97;;;9.30;99.90;;;;;;5023943;28;20231;-51
2023/01/08 02:11:19;;;;;;;2.13;2.00;;;9.30;99.90;;;;;;5038064;28;20222;-53
2023/01/08 02:13:55;;;;;;;3.93;2.03;;;9.40;99.90;;;;;;5034802;28;20218;-48
2023/01/08 02:16:28;;;;;;;2.60;1.90;;;9.40;99.90;;;;;;5033251;28;20215;-52
2023/01/08 02:19:00;;;;;;;2.30;2.10;;;9.40;99.90;;;;;;5038149;28;20227;-46
2023/01/08 02:21:36;;;;;;;4.23;1.77;;;9.40;99.90;;;;;;5044328;28;20217;-52
2023/01/08 02:24:12;;;;;;;2.97;2.20;;;9.40;99.90;;;;;;5027337;28;20298;-43
2023/01/08 02:26:42;;;;;;;2.10;1.90;;;9.40;99.90;;;;;;5041891;28;20689;-51
2023/01/08 02:29:11;;;;;;;2.37;2.17;;;9.40;99.90;;;;;;5025727;28;20208;-48
2023/01/08 02:31:40;;;;;;;2.00;1.80;;;9.40;99.90;;;;;;5030738;28;20219;-55
2023/01/08 02:34:08;;;;;;;1.80;1.70;;;9.40;99.90;;;;;;5029708;28;20858;-54
2023/01/08 02:36:39;;;;;;;1.93;1.73;;;9.40;99.90;;;;;;5042007;28;20631;-55
2023/01/08 02:39:28;;;;;;;2.00;1.80;;;9.40;99.90;;;;;;5015921;28;20216;-50
2023/01/08 02:42:05;;;;;;;2.47;1.90;;;9.40;99.90;;;;;;5032963;28;20200;-47
2023/01/08 02:44:41;;;;;;;1.90;1.80;;;9.40;99.90;;;;;;5045798;28;20195;-52
2023/01/08 02:47:12;;;;;;;3.23;2.20;;;9.40;99.90;;;;;;5042098;28;20272;-49
2023/01/08 02:49:43;;;;;;;2.33;1.77;;;9.40;99.90;;;;;;5034672;28;20208;-53
2023/01/08 02:52:12;;;;;;;4.00;2.20;;;9.30;99.90;;;;;;5027323;28;20271;-53
2023/01/08 02:54:40;;;;;;;1.97;1.87;;;9.30;99.90;;;;;;5031708;28;20208;-51
2023/01/08 02:57:12;;;;;;;1.77;1.67;;;9.30;99.90;;;;;;5031657;28;21059;-50
2023/01/08 02:59:42;;;;;;;2.20;2.00;;;9.30;99.90;;;;;;5031185;28;20233;-53
2023/01/08 03:02:10;;;;;;;1.80;1.70;;;9.30;99.90;;;;;;5024858;28;20216;-51
2023/01/08 03:04:56;;;;;;;2.03;1.93;;;9.30;99.90;;;;;;5045095;28;20609;-50
2023/01/08 03:07:23;;;;;;;1.80;1.70;;;9.30;99.90;;;;;;5038703;28;20301;-53
2023/01/08 03:09:51;;;;;;;6.10;1.93;;;9.30;99.90;;;;;;5024019;28;20211;-46
2023/01/08 03:12:24;;;;;;;3.00;2.10;;;9.30;99.90;;;;;;5030290;28;20195;-54
2023/01/08 03:14:57;;;;;;;2.57;1.80;;;9.30;99.90;;;;;;5027916;28;20237;-45
2023/01/08 03:17:30;;;;;;;2.37;2.17;;;9.30;99.90;;;;;;5026955;28;20672;-54
2023/01/08 03:20:00;;;;;;;3.30;1.80;;;9.30;99.90;;;;;;5034156;28;20212;-45
2023/01/08 03:22:28;;;;;;;2.37;2.17;;;9.20;99.90;;;;;;5033019;28;20208;-54
2023/01/08 03:24:58;;;;;;;2.10;1.80;;;9.30;99.90;;;;;;5025837;28;20614;-46
2023/01/08 03:27:30;;;;;;;3.20;1.83;;;9.20;99.90;;;;;;5015148;28;20290;-55
2023/01/08 03:29:59;;;;;;;2.70;1.77;;;9.20;99.90;;;;;;5033541;28;20207;-46
2023/01/08 03:32:29;;;;;;;3.00;1.70;;;9.20;99.90;;;;;;5029429;28;20200;-49
2023/01/08 03:34:58;;;;;;;2.40;2.20;;;9.20;99.90;;;;;;5025791;28;20204;-49
2023/01/08 03:37:32;;;;;;;3.27;2.07;;;9.10;99.90;;;;;;5026747;28;20282;-55
2023/01/08 03:40:03;;;;;;;1.80;1.70;;;9.10;99.90;;;;;;5043835;28;20239;-45
2023/01/08 03:42:33;;;;;;;1.90;1.80;;;9.10;99.90;;;;;;5025029;28;20200;-53
2023/01/08 03:45:00;;;;;;;2.00;1.83;;;9.10;99.90;;;;;;5027098;28;20687;-43
2023/01/08 03:47:29;;;;;;;2.37;1.97;;;9.10;99.90;;;;;;5032535;28;20228;-48
2023/01/08 03:50:00;;;;;;;2.47;2.20;;;9.00;99.90;;;;;;5028198;28;20249;-47
2023/01/08 03:52:29;;;;;;;3.63;2.03;;;9.00;99.90;;;;;;5026861;28;20290;-49
2023/01/08 03:54:56;;;;;;;3.13;2.10;;;9.00;99.90;;;;;;5025104;28;20196;-46
2023/01/08 03:57:24;;;;;;;2.53;1.97;;;9.10;99.90;;;;;;5013990;28;20229;-50
2023/01/08 03:59:52;;;;;;;1.90;1.80;;;9.10;99.90;;;;;;5034335;28;20665;-44
2023/01/08 04:02:19;;;;;;;2.50;2.30;;;9.10;99.90;;;;;;5030304;28;20194;-53
2023/01/08 04:04:47;;;;;;;1.53;1.43;;;9.10;99.90;;;;;;5026897;28;20231;-46
2023/01/08 04:07:14;;;;;;;2.40;2.20;;;9.10;99.90;;;;;;5030290;28;20888;-52
2023/01/08 04:09:41;;;;;;;2.63;2.00;;;9.20;99.90;;;;;;5039924;28;20198;-53
2023/01/08 04:12:08;;;;;;;2.13;2.00;;;9.20;99.90;;;;;;5011384;28;25415;-54
2023/01/08 04:14:35;;;;;;;4.73;2.60;;;9.20;99.90;;;;;;5041917;28;20199;-53
2023/01/08 04:17:03;;;;;;;2.43;2.07;;;9.30;99.90;;;;;;5029101;28;20234;-46
2023/01/08 04:19:30;;;;;;;2.37;2.17;;;9.30;99.90;;;;;;5036200;28;20266;-54
2023/01/08 04:21:57;;;;;;;2.00;1.80;;;9.30;99.90;;;;;;5028616;28;20696;-43
2023/01/08 04:24:24;;;;;;;1.67;1.57;;;9.30;99.90;;;;;;5025943;28;20215;-52
2023/01/08 04:26:51;;;;;;;2.30;1.40;;;9.40;99.90;;;;;;5037364;28;20226;-43
2023/01/08 04:29:17;;;;;;;2.60;1.90;;;9.40;99.90;;;;;;5016189;28;20206;-49
2023/01/08 04:31:44;;;;;;;2.17;2.03;;;9.40;99.90;;;;;;5034331;28;20218;-51
2023/01/08 04:34:13;;;;;;;2.77;1.80;;;9.40;99.90;;;;;;5026478;28;20203;-53
2023/01/08 04:36:39;;;;;;;3.03;2.10;;;9.40;99.90;;;;;;5040104;28;20227;-48
2023/01/08 04:39:07;;;;;;;2.47;2.17;;;9.40;99.90;;;;;;5022814;28;20208;-52
2023/01/08 04:41:34;;;;;;;2.03;1.90;;;9.50;99.90;;;;;;5026202;28;20195;-53
2023/01/08 04:44:01;;;;;;;2.17;1.83;;;9.50;99.90;;;;;;5016922;28;20211;-45
2023/01/08 04:46:28;;;;;;;2.17;1.97;;;9.50;99.90;;;;;;5036677;28;20198;-53
2023/01/08 04:48:55;;;;;;;2.27;2.07;;;9.50;99.90;;;;;;5022083;28;20222;-45
2023/01/08 04:51:25;;;;;;;2.40;2.00;;;9.50;99.90;;;;;;5024671;28;20199;-53
2023/01/08 04:53:52;;;;;;;2.30;2.10;;;9.50;99.90;;;;;;5025990;28;20218;-48
2023/01/08 04:56:19;;;;;;;2.23;1.60;;;9.50;99.90;;;;;;5024430;28;21027;-54
2023/01/08 04:58:46;;;;;;;2.30;1.77;;;9.60;99.90;;;;;;5023412;28;20204;-43
2023/01/08 05:01:15;;;;;;;2.57;1.90;;;9.50;99.90;;;;;;5020815;28;20187;-48
2023/01/08 05:03:42;;;;;;;1.90;1.80;;;9.60;99.90;;;;;;5026767;28;20557;-54
2023/01/08 05:06:09;;;;;;;3.63;2.30;;;9.60;99.90;;;;;;5026385;28;20199;-54
2023/01/08 05:08:37;;;;;;;1.70;1.60;;;9.60;99.90;;;;;;5027434;28;20207;-47
2023/01/08 05:11:05;;;;;;;2.00;1.90;;;9.60;99.90;;;;;;5020937;28;20794;-53
2023/01/08 05:13:31;;;;;;;3.63;2.20;;;9.60;99.90;;;;;;5026065;28;20539;-55
2023/01/08 05:15:59;;;;;;;2.30;1.73;;;9.60;99.90;;;;;;5017082;28;20215;-42
2023/01/08 05:18:27;;;;;;;3.93;2.20;;;9.50;99.90;;;;;;5033716;28;20211;-51
2023/01/08 05:20:53;;;;;;;3.17;2.07;;;9.50;99.90;;;;;;5024156;28;20196;-42
2023/01/08 05:23:20;;;;;;;2.27;1.97;;;9.50;99.90;;;;;;5023921;28;20195;-48
2023/01/08 05:25:48;;;;;;;2.10;1.90;;;9.50;99.90;;;;;;5027362;28;20203;-44
2023/01/08 05:28:15;;;;;;;2.17;1.97;;;9.50;99.90;;;;;;5032100;28;20212;-52
2023/01/08 05:30:42;;;;;;;3.93;2.13;;;9.50;99.90;;;;;;5025517;28;20204;-52
2023/01/08 05:33:09;;;;;;;2.57;2.00;;;9.50;99.90;;;;;;5014539;28;20196;-54
2023/01/08 05:35:39;;;;;;;2.13;1.93;;;9.50;99.90;;;;;;5026322;28;20211;-51
2023/01/08 05:38:06;;;;;;;2.23;2.00;;;9.50;99.90;;;;;;5022065;28;20340;-50
2023/01/08 05:40:33;;;;;;;2.40;2.20;;;9.50;99.90;;;;;;5034877;28;20241;-51
2023/01/08 05:43:04;;;;;;;5.73;2.10;;;9.50;99.90;;;;;;5018295;28;20667;-47
2023/01/08 05:45:31;;;;;;;3.00;2.27;;;9.50;99.90;;;;;;5025228;28;20204;-54
2023/01/08 05:47:58;;;;;;;2.67;1.97;;;9.50;99.90;;;;;;5015451;28;20223;-48
2023/01/08 05:50:25;;;;;;;2.07;1.90;;;9.50;99.90;;;;;;5029774;28;20207;-52
2023/01/08 05:52:52;;;;;;;1.90;1.80;;;9.40;99.90;;;;;;5022245;28;20218;-45
2023/01/08 05:55:19;;;;;;;3.33;2.20;;;9.40;99.90;;;;;;5025274;28;20207;-50
2023/01/08 05:57:46;;;;;;;2.53;2.00;;;9.40;99.90;;;;;;5021503;28;20230;-45
2023/01/08 06:00:15;;;;;;;2.23;2.03;;;9.40;99.90;;;;;;5024985;28;20202;-53
2023/01/08 06:02:46;;;;;;;2.77;2.00;;;9.40;99.90;;;;;;5028192;28;20199;-46
2023/01/08 06:05:12;;;;;;;2.27;1.97;;;9.40;99.90;;;;;;5021041;28;20929;-50
2023/01/08 06:07:39;;;;;;;2.40;2.20;;;9.40;99.90;;;;;;5032608;28;20222;-43
2023/01/08 06:10:07;;;;;;;2.47;2.27;;;9.40;99.90;;;;;;5025701;28;20206;-55
2023/01/08 06:12:33;;;;;;;3.13;2.30;;;9.40;99.90;;;;;;5027008;28;20204;-55
2023/01/08 06:15:01;;;;;;;2.40;2.20;;;9.40;99.90;;;;;;5018986;28;20722;-55
2023/01/08 06:17:29;;;;;;;2.87;2.13;;;9.40;99.90;;;;;;5025534;28;20215;-51
2023/01/08 06:19:56;;;;;;;2.87;2.40;;;9.40;99.90;;;;;;5021189;28;20206;-52
2023/01/08 06:22:22;;;;;;;2.40;2.20;;;9.40;99.90;;;;;;5027789;28;20212;-52
2023/01/08 06:24:49;;;;;;;2.17;2.07;;;9.40;99.90;;;;;;5026218;28;20192;-52
2023/01/08 06:27:16;;;;;;;1.83;1.73;;;9.40;99.90;;;;;;5024161;28;20235;-49
2023/01/08 06:29:43;;;;;;;2.27;2.17;;;9.40;99.90;;;;;;5026740;28;20230;-51
2023/01/08 06:32:10;;;;;;;2.13;2.00;;;9.40;99.90;;;;;;5030965;28;20203;-46
2023/01/08 06:34:38;;;;;;;1.73;1.63;;;9.30;99.90;;;;;;5018170;28;20210;-49
2023/01/08 06:37:05;;;;;;;1.87;1.77;;;9.30;99.90;;;;;;5029719;28;20298;-45
2023/01/08 06:39:32;;;;;;;2.03;1.90;;;9.30;99.90;;;;;;5022617;28;20204;-53
2023/01/08 06:41:59;;;;;;;2.20;2.00;;;9.30;99.90;;;;;;5032602;28;20199;-49
2023/01/08 06:44:25;;;;;;;2.40;1.90;;;9.30;99.90;;;;;;5033276;28;20192;-52
2023/01/08 06:46:52;;;;;;;2.40;2.20;;;9.30;99.90;;;;;;5030900;28;20225;-55
2023/01/08 06:49:21;;;;;;;2.13;1.97;;;9.30;99.90;;;;;;5020077;28;20214;-45
2023/01/08 06:51:49;;;;;;;3.37;2.20;;;9.30;99.90;;;;;;5034978;28;20198;-43
2023/01/08 06:54:15;;;;;;;2.67;2.10;;;9.30;99.90;;;;;;5030168;28;20200;-44
2023/01/08 06:56:43;;;;;;;2.30;2.10;;;9.30;99.90;;;;;;5038020;28;20215;-52
2023/01/08 06:59:09;;;;;;;2.43;1.90;;;9.30;99.90;;;;;;5033253;28;20196;-44
2023/01/08 07:01:36;;;;;;;2.17;1.80;;;9.30;99.90;;;;;;5038311;28;20920;-52
2023/01/08 07:04:03;;;;;;;2.27;2.10;;;9.30;99.90;;;;;;5022549;28;20718;-49
2023/01/08 07:06:30;;;;;;;1.90;1.73;;;9.30;99.90;;;;;;5033232;28;20223;-51
2023/01/08 07:08:58;;;;;;;2.20;1.93;;;9.30;99.90;;;;;;5031795;28;20574;-52
2023/01/08 07:11:26;;;;;;;3.00;1.87;;;9.30;99.90;;;;;;5033815;28;20192;-55
2023/01/08 07:13:52;;;;;;;2.33;2.00;;;9.30;99.90;;;;;;5038710;28;20204;-53
2023/01/08 07:16:19;;;;;;;3.60;2.10;;;9.30;99.90;;;;;;5023783;28;20715;-48
2023/01/08 07:18:46;;;;;;;2.13;2.03;;;9.30;99.90;;;;;;5029383;28;20220;-52
2023/01/08 07:21:13;;;;;;;2.60;1.87;;;9.30;99.90;;;;;;5022478;28;20215;-45
2023/01/08 07:23:40;;;;;;;2.40;2.07;;;9.30;99.90;;;;;;5034478;28;20192;-51
2023/01/08 07:26:09;;;;;;;2.53;2.33;;;9.30;99.90;;;;;;5030394;28;20204;-45
2023/01/08 07:28:36;;;;;;;1.93;1.83;;;9.30;99.90;;;;;;5030693;28;20214;-53
2023/01/08 07:31:03;;;;;;;1.90;1.80;;;9.30;99.90;;;;;;5037392;28;20211;-45
2023/01/08 07:33:30;;;;;;;2.67;1.90;;;9.30;99.90;;;;;;5028796;28;20183;-52
2023/01/08 07:35:57;;;;;;;3.90;1.70;;;9.30;99.90;;;;;;5027774;28;20212;-55
2023/01/08 07:38:24;;;;;;;3.60;1.63;;;9.30;99.90;;;;;;5036779;28;20256;-49
2023/01/08 07:40:51;;;;;;;1.90;1.70;;;9.30;99.90;;;;;;5038972;28;20208;-55
2023/01/08 07:43:20;;;;;;;2.00;1.80;;;9.30;99.90;;;;;;5034693;28;20195;-48
2023/01/08 07:45:46;;;;;;;2.57;2.17;;;9.30;99.90;;;;;;5040316;28;20253;-50
2023/01/08 07:48:32;;;;;;;2.30;2.10;;;9.30;99.90;;;;;;5038872;28;20226;-55
2023/01/08 07:51:02;;;;;;;1.93;1.83;;;9.20;99.90;;;;;;5025495;28;20211;-53
2023/01/08 07:53:29;;;;;;;2.10;1.90;;;9.30;99.90;;;;;;5040551;28;20189;-55
2023/01/08 07:56:00;;;;;;;2.27;2.07;;;9.30;99.90;;;;;;5035556;28;20210;-53
2023/01/08 07:58:28;;;;;;;4.07;2.10;;;9.20;99.90;;;;;;5040773;28;20904;-48
2023/01/08 08:00:55;;;;;;;2.10;1.90;;;9.20;99.90;;;;;;5032109;28;20204;-44
2023/01/08 08:03:23;;;;;;;2.87;2.37;;;9.20;99.90;;;;;;5042650;28;20203;-55
2023/01/08 08:05:50;;;;;;;2.83;2.30;;;9.30;99.90;;;;;;5018168;28;20606;-51
2023/01/08 08:08:17;;;;;;;2.50;2.30;;;9.30;99.90;;;;;;5037391;28;20297;-43
2023/01/08 08:10:45;;;;;;;2.10;2.00;;;9.30;99.90;;;;;;5035555;28;20190;-47
2023/01/08 08:13:13;;;;;;;1.97;1.87;;;9.30;99.90;;;;;;5033389;28;20200;-45
2023/01/08 08:15:41;;;;;;;2.27;1.93;;;9.30;99.90;;;;;;5025950;28;20222;-48
2023/01/08 08:18:08;;;;;;;2.40;2.20;;;9.30;99.90;;;;;;5027912;28;20402;-50
2023/01/08 08:20:35;;;;;;;2.33;1.87;;;9.30;99.90;;;;;;5012795;28;21119;-55
2023/01/08 08:23:03;;;;;;;2.40;2.20;;;9.30;99.90;;;;;;5039805;28;20724;-50
2023/01/08 08:25:30;;;;;;;2.57;2.37;;;9.30;99.90;;;;;;5033872;28;20249;-51
2023/01/08 08:27:58;;;;;;;2.83;2.63;;;9.30;99.90;;;;;;5029137;28;20219;-50
2023/01/08 08:30:25;;;;;;;2.50;2.30;;;9.30;99.90;;;;;;5025471;28;20196;-45
2023/01/08 08:32:54;;;;;;;2.87;2.23;;;9.30;99.90;;;;;;5027609;28;20204;-50
2023/01/08 08:35:21;;;;;;;3.47;2.60;;;9.20;99.90;;;;;;5019804;28;20271;-45
2023/01/08 08:37:48;;;;;;;2.90;2.47;;;9.20;99.90;;;;;;5032365;28;20229;-49
2023/01/08 08:40:14;;;;;;;3.20;2.90;;;9.20;99.90;;;;;;5033983;28;20234;-45
2023/01/08 08:42:42;;;;;;;2.00;1.90;;;9.20;99.90;;;;;;5031724;28;20195;-49
2023/01/08 08:45:09;;;;;;;2.43;2.20;;;9.10;99.90;;;;;;5035770;28;20192;-49
2023/01/08 08:47:36;;;;;;;4.43;2.30;;;9.10;99.90;;;;;;5024777;28;20261;-47
2023/01/08 08:50:06;;;;;;;3.23;2.90;;;9.10;99.90;;;;;;5030309;28;20204;-48
2023/01/08 08:52:36;;;;;;;3.23;2.97;;;9.10;99.90;;;;;;5019864;28;20199;-49
2023/01/08 08:55:02;;;;;;;3.37;2.73;;;9.10;99.90;;;;;;5029162;28;20200;-46
2023/01/08 08:57:30;;;;;;;2.93;2.70;;;9.10;99.90;;;;;;5023865;28;20220;-48
2023/01/08 08:59:56;;;;;;;3.13;2.50;;;9.10;99.90;;;;;;5028784;28;20254;-47
2023/01/08 09:02:23;;;;;;;2.93;2.63;;;9.10;99.90;;;;;;5025396;28;20211;-47
2023/01/08 09:04:50;;;;;;;4.40;3.00;;;9.10;99.90;;;;;;5032182;28;20200;-47
2023/01/08 09:07:19;;;;;;;2.70;2.30;;;9.20;99.90;;;;;;5024261;28;20227;-44
2023/01/08 09:09:45;;;;;;;2.70;2.00;;;9.20;99.90;;;;;;5036511;28;20949;-51
2023/01/08 09:12:12;;;;;;;2.43;2.23;;;9.20;99.90;;;;;;5028505;28;20207;-47
2023/01/08 09:14:42;;;;;;;2.60;2.10;;;9.20;99.90;;;;;;5024786;28;20280;-51
2023/01/08 09:17:08;;;;;;;2.87;2.43;;;9.20;99.90;;;;;;5037069;28;20702;-50
2023/01/08 09:19:36;;;;;;;2.23;2.00;;;9.20;99.90;;;;;;5029944;28;20210;-47
2023/01/08 09:22:02;;;;;;;2.30;2.10;;;9.20;99.90;;;;;;5031807;28;20196;-52
2023/01/08 09:24:31;;;;;;;2.80;2.20;;;9.20;99.90;;;;;;5018707;28;20207;-49
2023/01/08 09:26:58;;;;;;;3.27;2.00;;;9.20;99.90;;;;;;5033294;28;20215;-53
2023/01/08 09:29:26;;;;;;;5.77;2.47;;;9.10;99.90;;;;;;5032912;28;20202;-41
2023/01/08 09:31:53;;;;;;;2.50;2.30;;;9.10;99.90;;;;;;5027439;28;20188;-51
2023/01/08 09:34:20;;;;;;;3.23;2.53;;;9.10;99.90;;;;;;5024095;28;20203;-44
2023/01/08 09:36:47;;;;;;;3.10;2.40;;;9.10;99.90;;;;;;5036982;28;21007;-48
2023/01/08 09:39:14;;;;;;;2.97;2.77;;;9.10;99.90;;;;;;5023180;28;20290;-43
2023/01/08 09:41:46;;;;;;;4.23;2.43;;;9.10;99.90;;;;;;5038297;28;20187;-53
2023/01/08 09:44:18;;;;;;;2.67;2.27;;;9.10;99.90;;;;;;5026792;28;20662;-45
2023/01/08 09:46:46;;;;;;;2.70;2.50;;;9.10;99.90;;;;;;5025325;28;20899;-47
2023/01/08 09:49:16;;;;;;;3.43;2.70;;;9.20;99.90;;;;;;5027092;28;20200;-44
2023/01/08 09:51:43;;;;;;;3.07;2.77;;;9.10;99.90;;;;;;5028098;28;20196;-49
2023/01/08 09:54:14;;;;;;;2.80;2.17;;;9.20;99.90;;;;;;5018347;28;20233;-43
2023/01/08 09:56:42;;;;;;;2.73;2.27;;;9.20;99.90;;;;;;5031103;28;20212;-47
2023/01/08 09:59:12;;;;;;;3.77;2.70;;;9.20;99.90;;;;;;5027572;28;20713;-44
2023/01/08 10:01:43;;;;;;;2.20;2.10;;;9.20;99.90;;;;;;5024811;28;20191;-49
2023/01/08 10:04:15;;;;;;;2.30;2.10;;;9.30;99.90;;;;;;5026516;28;20204;-44
2023/01/08 10:06:50;;;;;;;2.70;2.20;;;9.30;99.90;;;;;;5030833;28;20237;-48
2023/01/08 10:09:16;;;;;;;2.53;2.10;;;9.40;99.90;;;;;;5027004;28;20198;-48
2023/01/08 10:11:47;;;;;;;2.87;1.90;;;9.40;99.90;;;;;;5031442;28;20187;-53
2023/01/08 10:14:21;;;;;;;2.60;2.40;;;9.40;99.90;;;;;;5035410;28;20477;-47
2023/01/08 10:16:52;;;;;;;2.17;2.07;;;9.50;99.90;;;;;;5027482;28;20223;-50
2023/01/08 10:19:19;;;;;;;2.20;1.80;;;9.50;99.90;;;;;;5030525;28;20207;-46
2023/01/08 10:21:47;;;;;;;2.33;1.97;;;9.50;99.90;;;;;;5024752;28;20207;-46
2023/01/08 10:24:13;;;;;;;2.53;1.83;;;9.60;99.90;;;;;;5026694;28;20218;-53
2023/01/08 10:26:40;;;;;;;3.00;2.10;;;9.60;99.90;;;;;;5040070;28;20226;-54
2023/01/08 10:29:12;;;;;;;2.97;1.70;;;9.60;99.90;;;;;;5039033;28;20303;-43
2023/01/08 10:31:45;;;;;;;1.80;1.70;;;9.70;99.90;;;;;;5028033;28;20295;-46
2023/01/08 10:34:23;;;;;;;2.00;1.90;;;9.70;99.90;;;;;;5032222;28;20214;-45
2023/01/08 10:36:50;;;;;;;1.83;1.73;;;9.70;99.90;;;;;;5034981;28;20215;-55
2023/01/08 10:39:23;;;;;;;2.50;1.70;;;9.70;99.90;;;;;;5027341;28;20239;-43
2023/01/08 10:41:53;;;;;;;1.60;1.47;;;9.80;99.90;;;;;;5033481;28;20199;-54
2023/01/08 10:44:23;;;;;;;3.37;1.93;;;9.80;99.90;;;;;;5041166;28;20207;-42
2023/01/08 10:46:54;;;;;;;2.47;1.60;;;9.80;99.90;;;;;;5039341;28;20291;-51
2023/01/08 10:49:29;;;;;;;1.93;1.27;;;9.90;99.90;;;;;;5041172;28;20194;-47
2023/01/08 10:51:56;;;;;;;1.90;1.67;;;9.90;99.90;;;;;;5040343;28;20290;-50
2023/01/08 10:54:35;;;;;;;1.70;1.60;;;9.90;99.90;;;;;;5016947;28;20215;-45
2023/01/08 10:57:03;;;;;;;1.77;1.60;;;9.90;99.90;;;;;;5037071;28;20228;-52
2023/01/08 10:59:31;;;;;;;1.53;1.33;;;9.90;99.90;;;;;;5024621;28;20993;-54
2023/01/08 11:01:58;;;;;;;1.73;1.47;;;9.90;99.90;;;;;;5040860;28;20196;-48
2023/01/08 11:04:31;;;;;;;1.97;1.50;;;9.90;99.90;;;;;;5041371;28;20203;-45
2023/01/08 11:07:01;;;;;;;1.27;1.17;;;9.90;99.90;;;;;;5035372;28;20257;-46
2023/01/08 11:09:31;;;;;;;1.87;0.93;;;9.90;99.90;;;;;;5033520;28;20184;-46
2023/01/08 11:11:58;;;;;;;1.80;1.60;;;9.90;99.90;;;;;;5023837;28;20227;-48
2023/01/08 11:14:29;;;;;;;3.50;1.30;;;9.90;99.90;;;;;;5040786;28;20629;-45
2023/01/08 11:16:58;;;;;;;1.70;1.30;;;9.90;99.90;;;;;;5046370;28;20219;-51
2023/01/08 11:19:27;;;;;;;4.83;1.37;;;9.90;99.90;;;;;;5042918;28;20229;-48
2023/01/08 11:21:59;;;;;;;1.70;0.97;;;9.90;99.90;;;;;;5041717;28;20257;-50
2023/01/08 11:24:31;;;;;;;1.77;1.40;;;9.90;99.90;;;;;;5031617;28;20857;-51
2023/01/08 11:27:04;;;;;;;1.20;1.10;;;9.90;99.90;;;;;;5027957;28;20255;-49
2023/01/08 11:29:38;;;;;;;1.67;1.23;;;9.90;99.90;;;;;;5024526;28;20203;-53
2023/01/08 11:32:26;;;;;;;1.97;1.20;;;9.90;99.90;;;;;;5030876;28;20213;-51
2023/01/08 11:34:58;;;;;;;1.73;1.50;;;9.90;99.90;;;;;;5040413;28;20280;-46
2023/01/08 11:37:28;;;;;;;1.87;1.67;;;9.90;99.90;;;;;;5036292;28;20306;-47
2023/01/08 11:39:56;;;;;;;1.50;1.40;;;10.00;99.90;;;;;;5033265;28;20277;-45
2023/01/08 11:42:37;;;;;;;2.67;1.60;;;10.00;99.90;;;;;;5019123;28;20218;-49
2023/01/08 11:45:16;;;;;;;1.57;1.43;;;10.10;99.90;;;;;;5026023;28;20234;-48
2023/01/08 11:47:58;;;;;;;1.97;1.87;;;10.20;99.90;;;;;;5020878;28;20306;-52
2023/01/08 11:50:28;;;;;;;2.20;1.80;;;10.30;99.90;;;;;;5022959;28;20203;-47
2023/01/08 11:53:09;;;;;;;2.23;1.47;;;10.30;99.90;;;;;;5024972;28;20196;-49
2023/01/08 11:55:46;;;;;;;4.13;1.70;;;10.40;99.90;;;;;;5027674;28;20265;-52
2023/01/08 11:58:22;;;;;;;1.50;1.40;;;10.50;99.90;;;;;;5011846;28;20328;-47
2023/01/08 12:01:00;;;;;;;2.63;1.30;;;10.40;99.90;;;;;;5018364;28;20265;-53
2023/01/08 12:03:34;;;;;;;2.23;1.20;;;10.50;99.90;;;;;;5035818;28;20282;-54
2023/01/08 12:06:26;;;;;;;2.00;1.50;;;10.40;99.90;;;;;;5036079;28;20254;-45
2023/01/08 12:09:03;;;;;;;2.60;1.57;;;10.40;99.90;;;;;;5035821;28;20199;-53
2023/01/08 12:11:32;;;;;;;3.13;1.47;;;10.40;99.90;;;;;;5005131;28;24223;-50
2023/01/08 12:14:10;;;;;;;1.97;1.37;;;10.40;99.90;;;;;;5037752;28;20196;-46
2023/01/08 12:16:51;;;;;;;2.87;1.90;;;10.40;99.90;;;;;;5022489;28;20227;-49
2023/01/08 12:19:31;;;;;;;1.47;1.33;;;10.40;99.90;;;;;;5024901;28;20735;-44
2023/01/08 12:22:10;;;;;;;1.53;1.23;;;10.50;99.90;;;;;;5033640;28;20273;-51
2023/01/08 12:24:55;;;;;;;4.03;1.20;;;10.50;99.90;;;;;;5026706;28;23860;-52
2023/01/08 12:27:33;;;;;;;1.67;1.00;;;10.60;99.90;;;;;;5017585;28;20230;-46
2023/01/08 12:30:14;;;;;;;1.63;1.10;;;10.60;99.90;;;;;;5031569;28;20219;-49
2023/01/08 12:32:44;;;;;;;1.20;1.20;;;10.70;99.90;;;;;;5021929;28;21551;-49
2023/01/08 12:35:18;;;;;;;2.03;1.13;;;10.70;99.90;;;;;;5029184;28;20253;-50
2023/01/08 12:37:52;;;;;;;0.97;0.80;;;10.70;99.90;;;;;;5037493;28;20230;-50
2023/01/08 12:40:24;;;;;;;1.10;1.00;;;10.70;99.90;;;;;;5033877;28;20619;-45
2023/01/08 12:42:51;;;;;;;1.30;1.20;;;10.80;99.90;;;;;;5028869;28;20556;-53
2023/01/08 12:45:25;;;;;;;1.53;0.87;;;10.70;99.90;;;;;;5015736;28;20210;-52
2023/01/08 12:47:56;;;;;;;2.00;1.07;;;10.70;99.90;;;;;;5029894;28;20312;-49
2023/01/08 12:50:48;;;;;;;2.10;0.80;;;10.80;99.90;;;;;;5021789;28;20930;-51
2023/01/08 12:53:25;;;;;;;1.97;0.73;;;10.70;99.90;;;;;;5032677;28;20207;-49
2023/01/08 12:56:02;;;;;;;0.90;0.63;;;10.80;99.90;;;;;;5030053;28;20736;-49
2023/01/08 12:58:39;;;;;;;0.90;0.60;;;10.70;99.90;;;;;;5033783;28;20210;-50
2023/01/08 13:01:22;;;;;;;1.13;0.80;;;10.80;99.90;;;;;;5009491;28;20212;-45
2023/01/08 13:03:49;;;;;;;0.80;0.60;;;10.70;99.90;;;;;;5024883;28;20205;-52
2023/01/08 13:06:19;;;;;;;0.77;0.50;;;10.70;99.90;;;;;;5019443;28;20242;-49